地図

経路データ

SID SEASON NUMBER BASIN SUBBASIN NAME ISO_TIME NATURE LAT LON WMO_WIND WMO_PRES WMO_AGENCY TRACK_TYPE DIST2LAND LANDFALL IFLAG USA_AGENCY USA_ATCF_ID USA_LAT USA_LON USA_RECORD USA_STATUS USA_WIND USA_PRES USA_SSHS USA_R34_NE USA_R34_SE USA_R34_SW USA_R34_NW USA_R50_NE USA_R50_SE USA_R50_SW USA_R50_NW USA_R64_NE USA_R64_SE USA_R64_SW USA_R64_NW USA_POCI USA_ROCI USA_RMW USA_EYE TOKYO_LAT TOKYO_LON TOKYO_GRADE TOKYO_WIND TOKYO_PRES TOKYO_R50_DIR TOKYO_R50_LONG TOKYO_R50_SHORT TOKYO_R30_DIR TOKYO_R30_LONG TOKYO_R30_SHORT TOKYO_LAND CMA_LAT CMA_LON CMA_CAT CMA_WIND CMA_PRES HKO_LAT HKO_LON HKO_CAT HKO_WIND HKO_PRES NEWDELHI_LAT NEWDELHI_LON NEWDELHI_GRADE NEWDELHI_WIND NEWDELHI_PRES NEWDELHI_CI NEWDELHI_DP NEWDELHI_POCI REUNION_LAT REUNION_LON REUNION_TYPE REUNION_WIND REUNION_PRES REUNION_TNUM REUNION_CI REUNION_RMW REUNION_R34_NE REUNION_R34_SE REUNION_R34_SW REUNION_R34_NW REUNION_R50_NE REUNION_R50_SE REUNION_R50_SW REUNION_R50_NW REUNION_R64_NE REUNION_R64_SE REUNION_R64_SW REUNION_R64_NW BOM_LAT BOM_LON BOM_TYPE BOM_WIND BOM_PRES BOM_TNUM BOM_CI BOM_RMW BOM_R34_NE BOM_R34_SE BOM_R34_SW BOM_R34_NW BOM_R50_NE BOM_R50_SE BOM_R50_SW BOM_R50_NW BOM_R64_NE BOM_R64_SE BOM_R64_SW BOM_R64_NW BOM_ROCI BOM_POCI BOM_EYE BOM_POS_METHOD BOM_PRES_METHOD NADI_LAT NADI_LON NADI_CAT NADI_WIND NADI_PRES WELLINGTON_LAT WELLINGTON_LON WELLINGTON_WIND WELLINGTON_PRES DS824_LAT DS824_LON DS824_STAGE DS824_WIND DS824_PRES TD9636_LAT TD9636_LON TD9636_STAGE TD9636_WIND TD9636_PRES TD9635_LAT TD9635_LON TD9635_WIND TD9635_PRES TD9635_ROCI NEUMANN_LAT NEUMANN_LON NEUMANN_CLASS NEUMANN_WIND NEUMANN_PRES MLC_LAT MLC_LON MLC_CLASS MLC_WIND MLC_PRES USA_GUST BOM_GUST BOM_GUST_PER REUNION_GUST REUNION_GUST_PER USA_SEAHGT USA_SEARAD_NE USA_SEARAD_SE USA_SEARAD_SW USA_SEARAD_NW STORM_SPEED STORM_DIR
1928253N18312 1928 54 NA NA NOT_NAMED 1928-09-08 12:00:00 TS 18.0000 -48.0000 35 hurdat_atl main 1513 1513 O_____________ hurdat_atl AL051928 18.0000 -48.0000 TS 35 0 11 331
1928253N18312 1928 54 NA NA NOT_NAMED 1928-09-08 15:00:00 TS 18.4951 -48.2921 main 1549 1549 P_____________ AL051928 18.4951 -48.2921 TS 35 0 12 330
1928253N18312 1928 54 NA NA NOT_NAMED 1928-09-08 18:00:00 TS 19.0000 -48.6000 35 hurdat_atl main 1587 1587 O_____________ hurdat_atl AL051928 19.0000 -48.6000 TS 35 0 12 330
1928253N18312 1928 54 NA NA NOT_NAMED 1928-09-08 21:00:00 TS 19.5274 -48.9353 main 1627 1625 P_____________ AL051928 19.5274 -48.9353 TS 37 0 13 329
1928253N18312 1928 54 NA NA NOT_NAMED 1928-09-09 00:00:00 TS 20.1000 -49.3000 40 hurdat_atl main 1636 1634 O_____________ hurdat_atl AL051928 20.1000 -49.3000 TS 40 0 14 329
1928253N18312 1928 54 NA NA NOT_NAMED 1928-09-09 03:00:00 TS 20.7124 -49.6855 main 1646 1646 P_____________ AL051928 20.7124 -49.6855 TS 42 0 15 330
1928253N18312 1928 54 NA NA NOT_NAMED 1928-09-09 06:00:00 TS 21.4000 -50.1000 45 hurdat_atl main 1654 1627 O_____________ hurdat_atl AL051928 21.4000 -50.1000 TS 45 0 16 332
1928253N18312 1928 54 NA NA NOT_NAMED 1928-09-09 09:00:00 TS 22.1545 -50.4989 main 1630 1602 P_____________ AL051928 22.1545 -50.4989 TS 47 0 18 332
1928253N18312 1928 54 NA NA NOT_NAMED 1928-09-09 12:00:00 TS 23.0000 -51.0000 50 hurdat_atl main 1602 1565 O_____________ hurdat_atl AL051928 23.0000 -51.0000 TS 50 0 21 328
1928253N18312 1928 54 NA NA NOT_NAMED 1928-09-09 15:00:00 TS 23.9128 -51.7052 main 1565 1530 P_____________ AL051928 23.9128 -51.7052 TS 52 0 24 324
1928253N18312 1928 54 NA NA NOT_NAMED 1928-09-09 18:00:00 TS 24.9000 -52.5000 55 hurdat_atl main 1534 1511 O_____________ hurdat_atl AL051928 24.9000 -52.5000 TS 55 0 25 324
1928253N18312 1928 54 NA NA NOT_NAMED 1928-09-09 21:00:00 TS 25.9206 -53.3386 main 1517 1509 P_____________ AL051928 25.9206 -53.3386 TS 57 0 25 327
1928253N18312 1928 54 NA NA NOT_NAMED 1928-09-10 00:00:00 TS 27.0000 -54.0000 60 hurdat_atl main 1527 1526 O_____________ hurdat_atl AL051928 27.0000 -54.0000 TS 60 0 24 339
1928253N18312 1928 54 NA NA NOT_NAMED 1928-09-10 03:00:00 TS 28.1418 -54.2863 main 1581 1581 P_____________ AL051928 28.1418 -54.2863 TS 60 0 23 353
1928253N18312 1928 54 NA NA NOT_NAMED 1928-09-10 06:00:00 TS 29.3000 -54.3000 60 hurdat_atl main 1672 1672 O_____________ hurdat_atl AL051928 29.3000 -54.3000 TS 60 0 23 1
1928253N18312 1928 54 NA NA NOT_NAMED 1928-09-10 09:00:00 TS 30.4221 -54.2470 main 1753 1654 P_____________ AL051928 30.4221 -54.2470 TS 60 0 22 7
1928253N18312 1928 54 NA NA NOT_NAMED 1928-09-10 12:00:00 TS 31.5000 -54.0000 60 hurdat_atl main 1643 1549 O_____________ hurdat_atl AL051928 31.5000 -54.0000 TS 60 0 22 13
1928253N18312 1928 54 NA NA NOT_NAMED 1928-09-10 15:00:00 TS 32.5203 -53.6762 main 1549 1469 P_____________ AL051928 32.5203 -53.6762 TS 60 0 22 23
1928253N18312 1928 54 NA NA NOT_NAMED 1928-09-10 18:00:00 TS 33.5000 -53.0000 60 hurdat_atl main 1457 1361 O_____________ hurdat_atl AL051928 33.5000 -53.0000 TS 60 0 25 40
1928253N18312 1928 54 NA NA NOT_NAMED 1928-09-10 21:00:00 TS 34.4678 -51.7497 main 1352 1277 P_____________ AL051928 34.4678 -51.7497 TS 60 0 29 50
1928253N18312 1928 54 NA NA NOT_NAMED 1928-09-11 00:00:00 TS 35.4000 -50.3000 60 hurdat_atl main 1269 1192 O_____________ hurdat_atl AL051928 35.4000 -50.3000 TS 60 0 28 49
1928253N18312 1928 54 NA NA NOT_NAMED 1928-09-11 03:00:00 TS 36.3038 -49.1666 main 1192 1136 P_____________ AL051928 36.3038 -49.1666 TS 60 0 26 46
1928253N18312 1928 54 NA NA NOT_NAMED 1928-09-11 06:00:00 ET 37.2000 -48.0000 60 hurdat_atl main 1129 1088 O_____________ hurdat_atl AL051928 37.2000 -48.0000 EX 60 -4 28 49
1928253N18312 1928 54 NA NA NOT_NAMED 1928-09-11 09:00:00 ET 38.1163 -46.5155 main 1092 1070 P_____________ AL051928 38.1163 -46.5155 EX 60 -4 30 53
1928253N18312 1928 54 NA NA NOT_NAMED 1928-09-11 12:00:00 ET 39.0000 -45.0000 60 hurdat_atl main 1075 1067 O_____________ hurdat_atl AL051928 39.0000 -45.0000 EX 60 -4 28 52
1928253N18312 1928 54 NA NA NOT_NAMED 1928-09-11 15:00:00 ET 39.8273 -43.7084 main 1075 1070 P_____________ AL051928 39.8273 -43.7084 EX 60 -4 25 50
1928253N18312 1928 54 NA NA NOT_NAMED 1928-09-11 18:00:00 ET 40.6000 -42.5000 60 984 hurdat_atl main 1085 1084 O_____________ hurdat_atl AL051928 40.6000 -42.5000 EX 60 984 -4 24 51
1928253N18312 1928 54 NA NA NOT_NAMED 1928-09-11 21:00:00 ET 41.3286 -41.2474 main 1119 1112 P_____________ AL051928 41.3286 -41.2474 EX 60 -4 23 53
1928253N18312 1928 54 NA NA NOT_NAMED 1928-09-12 00:00:00 ET 42.0000 -40.0000 60 hurdat_atl main 1156 1156 O_____________ hurdat_atl AL051928 42.0000 -40.0000 EX 60 -4 23 56
1928253N18312 1928 54 NA NA NOT_NAMED 1928-09-12 03:00:00 ET 42.6061 -38.7463 main 1213 1213 P_____________ AL051928 42.6061 -38.7463 EX 60 -4 22 57
1928253N18312 1928 54 NA NA NOT_NAMED 1928-09-12 06:00:00 ET 43.2000 -37.5000 60 hurdat_atl main 1266 1266 O_____________ hurdat_atl AL051928 43.2000 -37.5000 EX 60 -4 22 56
1928253N18312 1928 54 NA NA NOT_NAMED 1928-09-12 09:00:00 ET 43.8262 -36.2468 main 1331 1327 P_____________ AL051928 43.8262 -36.2468 EX 60 -4 22 54
1928253N18312 1928 54 NA NA NOT_NAMED 1928-09-12 12:00:00 ET 44.5000 -35.0000 60 hurdat_atl main 1390 1390 O_____________ hurdat_atl AL051928 44.5000 -35.0000 EX 60 -4 23 52
1928253N18312 1928 54 NA NA NOT_NAMED 1928-09-12 15:00:00 ET 45.2198 -33.7109 main 1463 1463 P_____________ AL051928 45.2198 -33.7109 EX 57 -4 23 50
1928253N18312 1928 54 NA NA NOT_NAMED 1928-09-12 18:00:00 ET 46.0000 -32.5000 55 hurdat_atl main 1529 1529 O_____________ hurdat_atl AL051928 46.0000 -32.5000 EX 55 -4 23 45
1928253N18312 1928 54 NA NA NOT_NAMED 1928-09-12 21:00:00 ET 46.8264 -31.4226 main 1593 1501 P_____________ AL051928 46.8264 -31.4226 EX 52 -4 22 39
1928253N18312 1928 54 NA NA NOT_NAMED 1928-09-13 00:00:00 ET 47.7000 -30.5000 50 hurdat_atl main 1501 1416 O_____________ hurdat_atl AL051928 47.7000 -30.5000 EX 50 -4 21 33
1928253N18312 1928 54 NA NA NOT_NAMED 1928-09-13 03:00:00 ET 48.5958 -29.7170 main 1405 1325 P_____________ AL051928 48.5958 -29.7170 EX 47 -4 21 29
1928253N18312 1928 54 NA NA NOT_NAMED 1928-09-13 06:00:00 ET 49.5000 -29.0000 45 hurdat_atl main 1321 O_____________ hurdat_atl AL051928 49.5000 -29.0000 EX 45 -4 20 27

IBTrACS Databaseについて

本データベースは、米国NOAAが公開する1842年以降の世界の熱帯低気圧のベストトラックデータアーカイブInternational Best Track Archive for Climate Stewardship (IBTrACS)を、ウェブで閲覧しやすい形式に変換したものです。

最終更新日:2021-12-06